N2AS KDCA-KCMH
Flight info
| Callsign | N2AS |
|---|---|
| Flight time | 0h 56m |
| Altitude | 43000 |
| Route | WYNGS5 RAMAY Q72 HACKS SCRLT2 |
| Aircraft | C700/M-SBDGHM1RWXY/LB2 |
Departure
| Time | 2026-04-30 02:02 |
|---|---|
| Airport | Ronald Reagan Washington National Airport (KDCA) |
Arrival
| Time | 2026-04-30 02:58 |
|---|---|
| Airport | John Glenn Columbus International Airport (KCMH) |
| Time | Latitude | Longitude | Altitude | Speed | Heading |
|---|---|---|---|---|---|
| 2026-04-30 01:46 | 38.84552 | -77.04523 | 18 ft | 0 kts | 142° |
| 2026-04-30 01:53 | 38.84551 | -77.04523 | 18 ft | 1 kts | 142° |
| 2026-04-30 01:53 | 38.84531 | -77.04487 | 20 ft | 9 kts | 116° |
| 2026-04-30 01:54 | 38.84531 | -77.04461 | 18 ft | 0 kts | 73° |
| 2026-04-30 01:55 | 38.84537 | -77.04439 | 20 ft | 9 kts | 65° |
| 2026-04-30 01:55 | 38.84563 | -77.04313 | 19 ft | 14 kts | 89° |
| 2026-04-30 01:55 | 38.84575 | -77.04218 | 21 ft | 15 kts | 77° |
| 2026-04-30 01:55 | 38.84560 | -77.04150 | 22 ft | 0 kts | 145° |
| 2026-04-30 01:56 | 38.84553 | -77.04144 | 22 ft | 6 kts | 140° |
| 2026-04-30 01:56 | 38.84552 | -77.04062 | 24 ft | 14 kts | 68° |
| 2026-04-30 01:56 | 38.84599 | -77.03990 | 22 ft | 11 kts | 32° |
| 2026-04-30 01:56 | 38.84670 | -77.03944 | 19 ft | 11 kts | 24° |
| 2026-04-30 01:57 | 38.84753 | -77.03894 | 19 ft | 13 kts | 24° |
| 2026-04-30 01:57 | 38.84855 | -77.03889 | 17 ft | 17 kts | 348° |
| 2026-04-30 01:57 | 38.84905 | -77.03950 | 15 ft | 12 kts | 341° |
| 2026-04-30 01:57 | 38.85017 | -77.03963 | 15 ft | 13 kts | 356° |
| 2026-04-30 01:58 | 38.85123 | -77.03974 | 15 ft | 17 kts | 356° |
| 2026-04-30 01:58 | 38.85216 | -77.03984 | 16 ft | 12 kts | 354° |
| 2026-04-30 01:58 | 38.85325 | -77.03993 | 17 ft | 19 kts | 356° |
| 2026-04-30 01:58 | 38.85410 | -77.04002 | 19 ft | 9 kts | 357° |
| 2026-04-30 01:59 | 38.85607 | -77.04038 | 22 ft | 12 kts | 356° |
| 2026-04-30 01:59 | 38.85698 | -77.04047 | 24 ft | 1 kts | 347° |
| 2026-04-30 01:59 | 38.85701 | -77.04049 | 28 ft | 0 kts | 334° |
| 2026-04-30 02:00 | 38.85702 | -77.04050 | 24 ft | 1 kts | 335° |
| 2026-04-30 02:00 | 38.85755 | -77.04052 | 23 ft | 15 kts | 1° |
| 2026-04-30 02:00 | 38.85890 | -77.04067 | 24 ft | 17 kts | 360° |
| 2026-04-30 02:00 | 38.85953 | -77.04008 | 22 ft | 15 kts | 28° |
| 2026-04-30 02:01 | 38.86011 | -77.03980 | 20 ft | 0 kts | 13° |
| 2026-04-30 02:01 | 38.86013 | -77.03979 | 20 ft | 3 kts | 13° |
| 2026-04-30 02:01 | 38.86083 | -77.03939 | 20 ft | 15 kts | 43° |
| 2026-04-30 02:01 | 38.86089 | -77.03866 | 17 ft | 2 kts | 161° |
| 2026-04-30 02:02 | 38.85933 | -77.03854 | 21 ft | 44 kts | 175° |
| 2026-04-30 02:02 | 38.85387 | -77.03799 | 18 ft | 120 kts | 176° |
| 2026-04-30 02:02 | 38.84341 | -77.03717 | 326 ft | 169 kts | 178° |
| 2026-04-30 02:02 | 38.83123 | -77.03664 | 1414 ft | 172 kts | 180° |
| 2026-04-30 02:03 | 38.81927 | -77.03613 | 2744 ft | 173 kts | 186° |
| 2026-04-30 02:03 | 38.80627 | -77.03618 | 3924 ft | 202 kts | 187° |
| 2026-04-30 02:03 | 38.79131 | -77.03666 | 5233 ft | 227 kts | 194° |
| 2026-04-30 02:03 | 38.77518 | -77.04340 | 6071 ft | 272 kts | 213° |
| 2026-04-30 02:04 | 38.76057 | -77.05814 | 7801 ft | 264 kts | 229° |
| 2026-04-30 02:04 | 38.75061 | -77.07732 | 9693 ft | 256 kts | 248° |
| 2026-04-30 02:04 | 38.74584 | -77.09984 | 11003 ft | 275 kts | 265° |
| 2026-04-30 02:04 | 38.74462 | -77.12518 | 12318 ft | 288 kts | 267° |
| 2026-04-30 02:05 | 38.74329 | -77.15088 | 14003 ft | 292 kts | 266° |
| 2026-04-30 02:05 | 38.74158 | -77.17710 | 15428 ft | 298 kts | 265° |
| 2026-04-30 02:05 | 38.73992 | -77.20401 | 16756 ft | 310 kts | 267° |
| 2026-04-30 02:05 | 38.74114 | -77.23290 | 17096 ft | 345 kts | 278° |
| 2026-04-30 02:06 | 38.74672 | -77.26178 | 19245 ft | 315 kts | 285° |
| 2026-04-30 02:06 | 38.75498 | -77.28753 | 20840 ft | 317 kts | 293° |
| 2026-04-30 02:06 | 38.76654 | -77.31185 | 21799 ft | 326 kts | 298° |
| 2026-04-30 02:06 | 38.77863 | -77.33667 | 22935 ft | 329 kts | 297° |
| 2026-04-30 02:07 | 38.79067 | -77.36207 | 23954 ft | 334 kts | 297° |
| 2026-04-30 02:07 | 38.80282 | -77.38753 | 24932 ft | 336 kts | 297° |
| 2026-04-30 02:07 | 38.81496 | -77.41274 | 25874 ft | 338 kts | 297° |
| 2026-04-30 02:07 | 38.82734 | -77.43852 | 26779 ft | 341 kts | 296° |
| 2026-04-30 02:08 | 38.83977 | -77.46454 | 27707 ft | 343 kts | 296° |
| 2026-04-30 02:08 | 38.85228 | -77.49073 | 28627 ft | 346 kts | 296° |
| 2026-04-30 02:08 | 38.86493 | -77.51721 | 29508 ft | 349 kts | 296° |
| 2026-04-30 02:08 | 38.87769 | -77.54394 | 30296 ft | 352 kts | 296° |
| 2026-04-30 02:09 | 38.89058 | -77.57096 | 30944 ft | 357 kts | 296° |
| 2026-04-30 02:09 | 38.90361 | -77.59832 | 31625 ft | 361 kts | 295° |
| 2026-04-30 02:09 | 38.91648 | -77.62600 | 32334 ft | 361 kts | 293° |
| 2026-04-30 02:09 | 38.92728 | -77.65532 | 32880 ft | 364 kts | 288° |
| 2026-04-30 02:10 | 38.93557 | -77.68560 | 33638 ft | 361 kts | 283° |
| 2026-04-30 02:10 | 38.94146 | -77.71678 | 34357 ft | 358 kts | 278° |
| 2026-04-30 02:10 | 38.94483 | -77.74849 | 34903 ft | 359 kts | 273° |
| 2026-04-30 02:10 | 38.94606 | -77.78065 | 35451 ft | 360 kts | 271° |
| 2026-04-30 02:11 | 38.94719 | -77.81283 | 35971 ft | 362 kts | 271° |
| 2026-04-30 02:11 | 38.94841 | -77.84521 | 36493 ft | 363 kts | 271° |
| 2026-04-30 02:11 | 38.94956 | -77.87771 | 37001 ft | 364 kts | 271° |
| 2026-04-30 02:11 | 38.95064 | -77.91029 | 37496 ft | 365 kts | 271° |
| 2026-04-30 02:12 | 38.95174 | -77.94292 | 38036 ft | 363 kts | 271° |
| 2026-04-30 02:12 | 38.95285 | -77.97527 | 38590 ft | 363 kts | 271° |
| 2026-04-30 02:12 | 38.95394 | -78.00777 | 38902 ft | 364 kts | 271° |
| 2026-04-30 02:12 | 38.95502 | -78.04032 | 39256 ft | 365 kts | 271° |
| 2026-04-30 02:13 | 38.95608 | -78.07249 | 39594 ft | 365 kts | 271° |
| 2026-04-30 02:13 | 38.95714 | -78.10510 | 39923 ft | 366 kts | 271° |
| 2026-04-30 02:13 | 38.95821 | -78.13785 | 40233 ft | 367 kts | 271° |
| 2026-04-30 02:13 | 38.95927 | -78.17102 | 40543 ft | 367 kts | 271° |
| 2026-04-30 02:14 | 38.96031 | -78.20342 | 40833 ft | 368 kts | 271° |
| 2026-04-30 02:14 | 38.96194 | -78.23638 | 40943 ft | 374 kts | 274° |
| 2026-04-30 02:14 | 38.96424 | -78.27018 | 40767 ft | 386 kts | 274° |
| 2026-04-30 02:14 | 38.96653 | -78.30499 | 40537 ft | 394 kts | 273° |
| 2026-04-30 02:15 | 38.96877 | -78.34010 | 40306 ft | 394 kts | 273° |
| 2026-04-30 02:15 | 38.97100 | -78.37507 | 40068 ft | 390 kts | 273° |
| 2026-04-30 02:15 | 38.97324 | -78.40984 | 39852 ft | 391 kts | 273° |
| 2026-04-30 02:16 | 38.97775 | -78.48077 | 39856 ft | 406 kts | 273° |
| 2026-04-30 02:16 | 38.98238 | -78.55421 | 39858 ft | 413 kts | 273° |
| 2026-04-30 02:17 | 38.98691 | -78.62707 | 39850 ft | 409 kts | 273° |
| 2026-04-30 02:17 | 38.99143 | -78.69995 | 39850 ft | 407 kts | 273° |
| 2026-04-30 02:18 | 38.99580 | -78.77189 | 39850 ft | 405 kts | 273° |
| 2026-04-30 02:18 | 39.00016 | -78.84405 | 39855 ft | 405 kts | 273° |
| 2026-04-30 02:19 | 39.00449 | -78.91642 | 39859 ft | 407 kts | 273° |
| 2026-04-30 02:19 | 39.00879 | -78.98909 | 39864 ft | 408 kts | 273° |
| 2026-04-30 02:20 | 39.01306 | -79.06191 | 39879 ft | 407 kts | 273° |
| 2026-04-30 02:20 | 39.01724 | -79.13402 | 39865 ft | 401 kts | 273° |
| 2026-04-30 02:21 | 39.02140 | -79.20507 | 39861 ft | 402 kts | 274° |
| 2026-04-30 02:21 | 39.02638 | -79.27692 | 39862 ft | 404 kts | 274° |
| 2026-04-30 02:22 | 39.03097 | -79.34914 | 39876 ft | 405 kts | 273° |
| 2026-04-30 02:22 | 39.03566 | -79.42124 | 39874 ft | 403 kts | 274° |
| 2026-04-30 02:23 | 39.04026 | -79.49367 | 39873 ft | 408 kts | 273° |
| 2026-04-30 02:23 | 39.04489 | -79.56663 | 39881 ft | 408 kts | 273° |
| 2026-04-30 02:24 | 39.04940 | -79.63867 | 39891 ft | 404 kts | 273° |
| 2026-04-30 02:24 | 39.05387 | -79.71098 | 39921 ft | 406 kts | 273° |
| 2026-04-30 02:25 | 39.05833 | -79.78352 | 39928 ft | 407 kts | 273° |
| 2026-04-30 02:25 | 39.06054 | -79.81985 | 39823 ft | 410 kts | 273° |
| 2026-04-30 02:25 | 39.06276 | -79.85667 | 39473 ft | 407 kts | 273° |
| 2026-04-30 02:25 | 39.06495 | -79.89293 | 39133 ft | 406 kts | 273° |
| 2026-04-30 02:26 | 39.06709 | -79.92864 | 38808 ft | 404 kts | 273° |
| 2026-04-30 02:26 | 39.06923 | -79.96463 | 38440 ft | 402 kts | 273° |
| 2026-04-30 02:26 | 39.07135 | -80.00035 | 38026 ft | 399 kts | 273° |
| 2026-04-30 02:26 | 39.07345 | -80.03584 | 37620 ft | 397 kts | 273° |
| 2026-04-30 02:27 | 39.07553 | -80.07130 | 37217 ft | 395 kts | 273° |
| 2026-04-30 02:27 | 39.07690 | -80.09470 | 36953 ft | 395 kts | 273° |
| 2026-04-30 02:27 | 39.07895 | -80.13004 | 36571 ft | 395 kts | 273° |
| 2026-04-30 02:27 | 39.08099 | -80.16533 | 36200 ft | 395 kts | 273° |
| 2026-04-30 02:28 | 39.08302 | -80.20062 | 35863 ft | 393 kts | 273° |
| 2026-04-30 02:28 | 39.08571 | -80.24742 | 35377 ft | 389 kts | 273° |
| 2026-04-30 02:28 | 39.08702 | -80.27034 | 35135 ft | 387 kts | 273° |
| 2026-04-30 02:28 | 39.08898 | -80.30496 | 34779 ft | 388 kts | 273° |
| 2026-04-30 02:29 | 39.09088 | -80.33957 | 34432 ft | 388 kts | 273° |
| 2026-04-30 02:29 | 39.09274 | -80.37430 | 34083 ft | 388 kts | 273° |
| 2026-04-30 02:29 | 39.09457 | -80.40849 | 33712 ft | 387 kts | 273° |
| 2026-04-30 02:29 | 39.09644 | -80.44314 | 33301 ft | 386 kts | 273° |
| 2026-04-30 02:30 | 39.09828 | -80.47764 | 32905 ft | 388 kts | 274° |
| 2026-04-30 02:30 | 39.10013 | -80.51248 | 32511 ft | 390 kts | 273° |
| 2026-04-30 02:30 | 39.10198 | -80.54749 | 32119 ft | 392 kts | 273° |
| 2026-04-30 02:30 | 39.10383 | -80.58258 | 31602 ft | 393 kts | 274° |
| 2026-04-30 02:31 | 39.10565 | -80.61758 | 31107 ft | 392 kts | 274° |
| 2026-04-30 02:31 | 39.10745 | -80.65223 | 30617 ft | 392 kts | 274° |
| 2026-04-30 02:31 | 39.10929 | -80.68791 | 30128 ft | 396 kts | 274° |
| 2026-04-30 02:31 | 39.11111 | -80.72336 | 29594 ft | 398 kts | 274° |
| 2026-04-30 02:32 | 39.11293 | -80.75910 | 29040 ft | 400 kts | 273° |
| 2026-04-30 02:32 | 39.11474 | -80.79494 | 28498 ft | 402 kts | 273° |
| 2026-04-30 02:32 | 39.11656 | -80.83102 | 27960 ft | 403 kts | 273° |
| 2026-04-30 02:32 | 39.11832 | -80.86602 | 27433 ft | 399 kts | 273° |
| 2026-04-30 02:33 | 39.12010 | -80.90205 | 26916 ft | 394 kts | 273° |
| 2026-04-30 02:33 | 39.12180 | -80.93636 | 26416 ft | 385 kts | 273° |
| 2026-04-30 02:33 | 39.12349 | -80.97070 | 25908 ft | 383 kts | 273° |
| 2026-04-30 02:33 | 39.12516 | -81.00490 | 25444 ft | 382 kts | 273° |
| 2026-04-30 02:34 | 39.12682 | -81.03903 | 25012 ft | 382 kts | 273° |
| 2026-04-30 02:34 | 39.12951 | -81.07310 | 24579 ft | 382 kts | 277° |
| 2026-04-30 02:34 | 39.13507 | -81.10661 | 24157 ft | 383 kts | 282° |
| 2026-04-30 02:34 | 39.14339 | -81.13922 | 23744 ft | 385 kts | 288° |
| 2026-04-30 02:35 | 39.15326 | -81.17127 | 23303 ft | 384 kts | 288° |
| 2026-04-30 02:35 | 39.16294 | -81.20329 | 22822 ft | 382 kts | 288° |
| 2026-04-30 02:35 | 39.17249 | -81.23517 | 22329 ft | 380 kts | 288° |
| 2026-04-30 02:35 | 39.18208 | -81.26691 | 21861 ft | 378 kts | 288° |
| 2026-04-30 02:36 | 39.19159 | -81.29829 | 21412 ft | 375 kts | 288° |
| 2026-04-30 02:36 | 39.20090 | -81.32913 | 21000 ft | 371 kts | 288° |
| 2026-04-30 02:36 | 39.21022 | -81.36012 | 20622 ft | 370 kts | 288° |
| 2026-04-30 02:36 | 39.21954 | -81.39118 | 20252 ft | 371 kts | 288° |
| 2026-04-30 02:37 | 39.22885 | -81.42215 | 19886 ft | 370 kts | 288° |
| 2026-04-30 02:37 | 39.23816 | -81.45315 | 19519 ft | 369 kts | 288° |
| 2026-04-30 02:37 | 39.24738 | -81.48390 | 19163 ft | 367 kts | 288° |
| 2026-04-30 02:37 | 39.25654 | -81.51456 | 18807 ft | 366 kts | 288° |
| 2026-04-30 02:38 | 39.26557 | -81.54479 | 18454 ft | 365 kts | 288° |
| 2026-04-30 02:38 | 39.27470 | -81.57532 | 18101 ft | 364 kts | 288° |
| 2026-04-30 02:38 | 39.28374 | -81.60548 | 17703 ft | 357 kts | 288° |
| 2026-04-30 02:38 | 39.29261 | -81.63527 | 17309 ft | 354 kts | 288° |
| 2026-04-30 02:39 | 39.30144 | -81.66500 | 16922 ft | 354 kts | 288° |
| 2026-04-30 02:39 | 39.31024 | -81.69466 | 16533 ft | 352 kts | 288° |
| 2026-04-30 02:39 | 39.31904 | -81.72421 | 16153 ft | 350 kts | 288° |
| 2026-04-30 02:39 | 39.32776 | -81.75354 | 15773 ft | 349 kts | 288° |
| 2026-04-30 02:40 | 39.33640 | -81.78272 | 15400 ft | 347 kts | 288° |
| 2026-04-30 02:40 | 39.34492 | -81.81152 | 15039 ft | 346 kts | 287° |
| 2026-04-30 02:40 | 39.35350 | -81.84052 | 14679 ft | 345 kts | 287° |
| 2026-04-30 02:40 | 39.36203 | -81.86944 | 14319 ft | 343 kts | 287° |
| 2026-04-30 02:41 | 39.37054 | -81.89823 | 13966 ft | 342 kts | 287° |
| 2026-04-30 02:41 | 39.37899 | -81.92685 | 13591 ft | 340 kts | 287° |
| 2026-04-30 02:41 | 39.38738 | -81.95536 | 13189 ft | 339 kts | 288° |
| 2026-04-30 02:41 | 39.39576 | -81.98386 | 12793 ft | 338 kts | 288° |
| 2026-04-30 02:42 | 39.40398 | -82.01183 | 12412 ft | 337 kts | 288° |
| 2026-04-30 02:42 | 39.41231 | -82.04014 | 12028 ft | 337 kts | 288° |
| 2026-04-30 02:42 | 39.42051 | -82.06814 | 11643 ft | 325 kts | 288° |
| 2026-04-30 02:42 | 39.42827 | -82.09463 | 11259 ft | 303 kts | 288° |
| 2026-04-30 02:43 | 39.43553 | -82.11931 | 10884 ft | 284 kts | 288° |
| 2026-04-30 02:43 | 39.44233 | -82.14261 | 10505 ft | 270 kts | 288° |
| 2026-04-30 02:43 | 39.44882 | -82.16488 | 10131 ft | 259 kts | 288° |
| 2026-04-30 02:43 | 39.45506 | -82.18623 | 9978 ft | 248 kts | 288° |
| 2026-04-30 02:44 | 39.46120 | -82.20741 | 9975 ft | 257 kts | 288° |
| 2026-04-30 02:44 | 39.46746 | -82.22900 | 9985 ft | 261 kts | 288° |
| 2026-04-30 02:44 | 39.47391 | -82.25100 | 9980 ft | 261 kts | 288° |
| 2026-04-30 02:44 | 39.48033 | -82.27296 | 9979 ft | 261 kts | 288° |
| 2026-04-30 02:45 | 39.48669 | -82.29489 | 9978 ft | 260 kts | 288° |
| 2026-04-30 02:45 | 39.49306 | -82.31686 | 9980 ft | 261 kts | 288° |
| 2026-04-30 02:45 | 39.50104 | -82.33811 | 9972 ft | 264 kts | 298° |
| 2026-04-30 02:45 | 39.51225 | -82.35713 | 9918 ft | 269 kts | 308° |
| 2026-04-30 02:46 | 39.52641 | -82.37319 | 9367 ft | 258 kts | 320° |
| 2026-04-30 02:46 | 39.54035 | -82.38591 | 8817 ft | 235 kts | 319° |
| 2026-04-30 02:46 | 39.55338 | -82.39831 | 8293 ft | 228 kts | 319° |
| 2026-04-30 02:46 | 39.56579 | -82.41011 | 7798 ft | 221 kts | 320° |
| 2026-04-30 02:47 | 39.57821 | -82.42191 | 7297 ft | 225 kts | 321° |
| 2026-04-30 02:47 | 39.59101 | -82.43402 | 6807 ft | 230 kts | 321° |
| 2026-04-30 02:47 | 39.60409 | -82.44637 | 6323 ft | 234 kts | 321° |
| 2026-04-30 02:47 | 39.61735 | -82.45890 | 5809 ft | 237 kts | 322° |
| 2026-04-30 02:48 | 39.63069 | -82.47154 | 5307 ft | 238 kts | 322° |
| 2026-04-30 02:48 | 39.64406 | -82.48420 | 4979 ft | 232 kts | 322° |
| 2026-04-30 02:48 | 39.65660 | -82.49601 | 4973 ft | 214 kts | 322° |
| 2026-04-30 02:48 | 39.66812 | -82.50698 | 4994 ft | 202 kts | 322° |
| 2026-04-30 02:49 | 39.67946 | -82.51776 | 4997 ft | 203 kts | 322° |
| 2026-04-30 02:49 | 39.69097 | -82.52869 | 5004 ft | 206 kts | 321° |
| 2026-04-30 02:49 | 39.70260 | -82.53984 | 5009 ft | 209 kts | 322° |
| 2026-04-30 02:49 | 39.71463 | -82.55114 | 5010 ft | 216 kts | 322° |
| 2026-04-30 02:50 | 39.72720 | -82.56212 | 5019 ft | 219 kts | 324° |
| 2026-04-30 02:50 | 39.73986 | -82.57321 | 5014 ft | 219 kts | 322° |
| 2026-04-30 02:50 | 39.75233 | -82.58442 | 5015 ft | 217 kts | 323° |
| 2026-04-30 02:50 | 39.76491 | -82.59531 | 5010 ft | 217 kts | 324° |
| 2026-04-30 02:51 | 39.77747 | -82.60628 | 5011 ft | 218 kts | 324° |
| 2026-04-30 02:51 | 39.79006 | -82.61736 | 5016 ft | 218 kts | 324° |
| 2026-04-30 02:51 | 39.80269 | -82.62842 | 5015 ft | 220 kts | 325° |
| 2026-04-30 02:51 | 39.81654 | -82.63646 | 5009 ft | 221 kts | 341° |
| 2026-04-30 02:52 | 39.83155 | -82.63953 | 5003 ft | 215 kts | 352° |
| 2026-04-30 02:52 | 39.84634 | -82.64092 | 5001 ft | 211 kts | 352° |
| 2026-04-30 02:52 | 39.86108 | -82.64256 | 4934 ft | 215 kts | 351° |
| 2026-04-30 02:52 | 39.87586 | -82.64415 | 4390 ft | 212 kts | 352° |
| 2026-04-30 02:53 | 39.89088 | -82.64575 | 3892 ft | 223 kts | 352° |
| 2026-04-30 02:53 | 39.90654 | -82.64758 | 3393 ft | 228 kts | 352° |
| 2026-04-30 02:53 | 39.92244 | -82.64961 | 3001 ft | 227 kts | 352° |
| 2026-04-30 02:53 | 39.93739 | -82.65159 | 2986 ft | 206 kts | 351° |
| 2026-04-30 02:54 | 39.95011 | -82.65832 | 2976 ft | 198 kts | 317° |
| 2026-04-30 02:54 | 39.95712 | -82.67305 | 2985 ft | 187 kts | 294° |
| 2026-04-30 02:54 | 39.96201 | -82.68890 | 2687 ft | 192 kts | 293° |
| 2026-04-30 02:54 | 39.96741 | -82.70436 | 2519 ft | 173 kts | 297° |
| 2026-04-30 02:55 | 39.97263 | -82.71804 | 2489 ft | 174 kts | 297° |
| 2026-04-30 02:55 | 39.97802 | -82.73208 | 2501 ft | 172 kts | 297° |
| 2026-04-30 02:55 | 39.98304 | -82.74632 | 2490 ft | 174 kts | 290° |
| 2026-04-30 02:55 | 39.98497 | -82.76154 | 2486 ft | 164 kts | 278° |
| 2026-04-30 02:56 | 39.98607 | -82.77608 | 2329 ft | 158 kts | 277° |
| 2026-04-30 02:56 | 39.98694 | -82.78970 | 2118 ft | 142 kts | 278° |
| 2026-04-30 02:56 | 39.98761 | -82.80209 | 1930 ft | 137 kts | 278° |
| 2026-04-30 02:56 | 39.98827 | -82.81432 | 1822 ft | 129 kts | 277° |
| 2026-04-30 02:57 | 39.98883 | -82.82673 | 1623 ft | 131 kts | 276° |
| 2026-04-30 02:57 | 39.98952 | -82.83816 | 1374 ft | 132 kts | 277° |
| 2026-04-30 02:57 | 39.99023 | -82.84992 | 1206 ft | 119 kts | 276° |
| 2026-04-30 02:57 | 39.99090 | -82.86034 | 1028 ft | 115 kts | 275° |
| 2026-04-30 02:58 | 39.99149 | -82.87102 | 887 ft | 117 kts | 275° |
| 2026-04-30 02:58 | 39.99205 | -82.88028 | 815 ft | 81 kts | 273° |
| 2026-04-30 02:58 | 39.99235 | -82.88605 | 818 ft | 51 kts | 274° |
| 2026-04-30 02:58 | 39.99254 | -82.88986 | 816 ft | 32 kts | 275° |
| 2026-04-30 02:59 | 39.99189 | -82.89130 | 815 ft | 19 kts | 193° |
| 2026-04-30 02:59 | 39.99168 | -82.89146 | 814 ft | 4 kts | 226° |
| 2026-04-30 02:59 | 39.99129 | -82.89222 | 813 ft | 13 kts | 205° |
| 2026-04-30 02:59 | 39.99070 | -82.89260 | 812 ft | 9 kts | 270° |
| 2026-04-30 03:00 | 39.99074 | -82.89294 | 813 ft | 0 kts | 280° |